Huvudsida
METAR-TAF:

METAR-TAF

Flygplatser :

Stockholm Skavsta Airport

Stockholm-Skavsta, Sverige

latitud: 58-47N, longitud: 016-55E, höjd: 43 m

Aktuellt väderrapport

Denna rapport gjordes för 20 minuter sedan, klockan 00:20 UTC
Vind 3 kt från sydväst
Temperatur 3°C
Fuktighet 100%
Tryck 1025 hPa
Sikt: 0450 m
dimbankar

METAR: ESKN 150020Z 23003KT 9999 0450W R08/1500D R26/1600N BCFG NSC 03/03 Q1025 R26/19//95

Tid: 01:40 (00:40 UTC)

Väderprognos

Denna rapport gjordes för 1 timme och 10 minuter sedan, klockan 23:30 UTC
Prognos gäller från 15 kl. 00 UTC till 15 kl. 24 UTC
Vind 3 kt från syd/sydväst
Sikt 10 km eller mer
Brutna moln på en höjd av 2000 ft
Sannolikhet 40%
från 15 kl. 00 UTC till 15 kl. 07 UTC
Sikt: 4000 m
fuktdis

TAF: ESKN 142330Z 1500/1524 20003KT 9999 BKN020 PROB40 1500/1507 4000 BR

Aktuella väderrapporter och prognoser från 4000 flygplatser (METAR- och TAF-rapporter).

De tillgängliga stationerna syns som gula och röda prickar på kartan.

För musen över prickarna för att se namnen på stationerna.

Klicka sedan för att få väderrapporter och prognoser.

För att ändra kartan: Klicka på de gröna knapparna med ett svart kors på för att zooma in; den gröna knappen med ett streck på för att zooma ut; eller på de gröna pilarna för angränsande kartor.


METAR-TAF: